Time;durP1;ratioP1;P1;durP2;ratioP2;P2;SDS_P1;SDS_P2;PMS_P1;PMS_P2;Temp;Humidity;BMP_temperature;BMP_pressure;BME280_temperature;BME280_humidity;BME280_pressure;Samples;Min_cycle;Max_cycle;Signal;HPM_P1;HPM_P2
2022/09/23 00:02:10;;;;;;;0.50;0.50;;;;;;;13.23;80.93;99576.47;5093006;28;20286;-65
2022/09/23 00:04:36;;;;;;;0.50;0.50;;;;;;;13.16;81.04;99551.84;5090298;28;20205;-64
2022/09/23 00:07:03;;;;;;;0.40;0.40;;;;;;;13.18;81.85;99572.41;5092486;28;20210;-65
2022/09/23 00:09:30;;;;;;;0.50;0.50;;;;;;;13.10;82.39;99564.97;5093397;28;20200;-65
2022/09/23 00:11:57;;;;;;;0.40;0.40;;;;;;;13.05;82.25;99561.72;5093154;28;20211;-65
2022/09/23 00:14:24;;;;;;;0.50;0.50;;;;;;;13.21;81.72;99577.44;5092809;28;20223;-66
2022/09/23 00:16:52;;;;;;;0.60;0.60;;;;;;;13.26;81.59;99573.78;5093313;28;20207;-65
2022/09/23 00:19:19;;;;;;;0.57;0.57;;;;;;;13.28;81.58;99574.56;5092611;28;20728;-65
2022/09/23 00:21:45;;;;;;;0.40;0.40;;;;;;;13.27;81.92;99566.91;5093095;28;20187;-65
2022/09/23 00:24:12;;;;;;;0.50;0.50;;;;;;;13.18;82.30;99556.97;5092483;28;20203;-66
2022/09/23 00:26:39;;;;;;;0.40;0.40;;;;;;;13.25;81.84;99566.94;5093036;28;20196;-65
2022/09/23 00:29:06;;;;;;;0.40;0.40;;;;;;;13.26;81.26;99571.22;5092996;28;20603;-65
2022/09/23 00:31:33;;;;;;;0.30;0.30;;;;;;;13.30;81.42;99559.91;5092455;28;20237;-65
2022/09/23 00:34:02;;;;;;;0.43;0.43;;;;;;;13.32;81.43;99557.25;5092890;28;20207;-66
2022/09/23 00:36:31;;;;;;;0.40;0.40;;;;;;;13.27;81.62;99554.88;5092197;28;20675;-65
2022/09/23 00:38:57;;;;;;;0.50;0.50;;;;;;;13.29;81.63;99560.78;5092845;28;20622;-65
2022/09/23 00:41:27;;;;;;;0.40;0.40;;;;;;;13.32;81.80;99560.66;5091955;28;20199;-65
2022/09/23 00:43:58;;;;;;;0.50;0.50;;;;;;;13.32;82.19;99565.81;5095814;28;20196;-66
2022/09/23 00:46:30;;;;;;;0.50;0.50;;;;;;;13.24;82.82;99562.72;5092755;28;20195;-65
2022/09/23 00:49:03;;;;;;;0.60;0.60;;;;;;;13.23;82.22;99570.47;5092584;28;20222;-65
2022/09/23 00:51:34;;;;;;;0.40;0.40;;;;;;;13.24;81.96;99570.44;5091957;28;20226;-65
2022/09/23 00:54:02;;;;;;;0.50;0.50;;;;;;;13.26;82.26;99560.91;5092239;28;20198;-65
2022/09/23 00:56:32;;;;;;;0.40;0.40;;;;;;;13.26;82.00;99554.91;5091488;28;20290;-65
2022/09/23 00:59:00;;;;;;;0.50;0.50;;;;;;;13.37;82.04;99563.94;5092580;28;20199;-65
2022/09/23 01:01:27;;;;;;;0.60;0.60;;;;;;;13.41;81.78;99560.31;5091559;28;20676;-65
2022/09/23 01:03:57;;;;;;;0.40;0.40;;;;;;;13.42;81.90;99558.56;5091151;28;20207;-65
2022/09/23 01:06:25;;;;;;;0.40;0.40;;;;;;;13.40;81.94;99568.13;5092178;28;20691;-66
2022/09/23 01:08:52;;;;;;;0.57;0.57;;;;;;;13.37;81.74;99566.50;5091015;28;20256;-65
2022/09/23 01:11:35;;;;;;;0.47;0.47;;;;;;;13.32;82.27;99570.97;5091818;28;20591;-65
2022/09/23 01:14:12;;;;;;;0.50;0.50;;;;;;;13.26;82.50;99571.22;5091551;28;20222;-65
2022/09/23 01:16:45;;;;;;;0.50;0.50;;;;;;;13.11;83.05;99557.19;5090157;28;20609;-66
2022/09/23 01:19:34;;;;;;;0.47;0.47;;;;;;;13.16;82.91;99564.72;5091896;28;20191;-65
2022/09/23 01:22:10;;;;;;;0.40;0.40;;;;;;;13.11;83.11;99566.66;5091889;28;20223;-65
2022/09/23 01:24:48;;;;;;;0.50;0.50;;;;;;;13.05;82.82;99570.25;5087619;28;20226;-69
2022/09/23 01:27:36;;;;;;;0.50;0.50;;;;;;;12.97;82.96;99556.00;5090829;28;20555;-69
2022/09/23 01:30:15;;;;;;;0.43;0.43;;;;;;;12.97;83.12;99558.56;5091091;28;20348;-69
2022/09/23 01:33:03;;;;;;;0.40;0.40;;;;;;;12.87;83.08;99562.38;5090605;28;20235;-69
2022/09/23 01:35:46;;;;;;;0.50;0.50;;;;;;;12.76;83.29;99554.22;5090480;28;20280;-69
2022/09/23 01:38:22;;;;;;;0.50;0.50;;;;;;;12.83;83.52;99563.38;5090301;28;20198;-69
2022/09/23 01:40:58;;;;;;;0.40;0.40;;;;;;;12.84;83.05;99562.50;5094160;28;20701;-69
2022/09/23 01:43:32;;;;;;;0.40;0.40;;;;;;;12.78;83.22;99563.56;5090361;28;20195;-69
2022/09/23 01:46:04;;;;;;;0.40;0.40;;;;;;;12.69;83.91;99558.75;5090720;28;20202;-69
2022/09/23 01:48:40;;;;;;;0.40;0.40;;;;;;;12.67;84.03;99554.53;5089669;28;20195;-69
2022/09/23 01:51:12;;;;;;;0.57;0.57;;;;;;;12.66;83.88;99558.88;5089804;28;20682;-69
2022/09/23 01:53:45;;;;;;;0.50;0.50;;;;;;;12.64;83.98;99566.63;5090484;28;20264;-69
2022/09/23 01:56:17;;;;;;;0.40;0.40;;;;;;;12.68;83.79;99566.50;5089561;28;20206;-69
2022/09/23 01:58:49;;;;;;;0.40;0.40;;;;;;;12.70;83.40;99560.41;5089572;28;20580;-70
2022/09/23 02:01:22;;;;;;;0.50;0.50;;;;;;;12.72;83.67;99561.22;5088761;28;20249;-69
2022/09/23 02:03:59;;;;;;;0.43;0.43;;;;;;;12.67;83.90;99550.22;5087044;28;20204;-69
2022/09/23 02:06:32;;;;;;;0.40;0.40;;;;;;;12.73;83.22;99560.28;5089562;28;20206;-69
2022/09/23 02:09:02;;;;;;;0.40;0.40;;;;;;;12.70;83.35;99559.59;5090383;28;20195;-69
2022/09/23 02:11:34;;;;;;;0.40;0.40;;;;;;;12.62;83.83;99558.13;5089971;28;20222;-68
2022/09/23 02:14:06;;;;;;;0.77;0.77;;;;;;;12.58;83.79;99564.28;5089928;28;20215;-69
2022/09/23 02:16:38;;;;;;;0.50;0.50;;;;;;;12.49;84.19;99564.59;5089792;28;20192;-69
2022/09/23 02:19:10;;;;;;;0.40;0.40;;;;;;;12.43;84.64;99562.25;5090149;28;20203;-69
2022/09/23 02:21:42;;;;;;;0.50;0.50;;;;;;;12.40;84.77;99562.38;5088408;28;20202;-69
2022/09/23 02:24:13;;;;;;;0.50;0.50;;;;;;;12.39;85.07;99560.69;5089863;28;20198;-69
2022/09/23 02:26:46;;;;;;;0.40;0.40;;;;;;;12.31;85.15;99572.13;5088585;28;20286;-69
2022/09/23 02:29:20;;;;;;;0.50;0.50;;;;;;;12.29;85.43;99572.16;5090080;28;20732;-69
2022/09/23 02:31:57;;;;;;;0.50;0.50;;;;;;;12.28;85.55;99578.19;5089307;28;20211;-69
2022/09/23 02:34:46;;;;;;;0.40;0.40;;;;;;;12.28;85.56;99567.09;5089311;28;20199;-69
2022/09/23 02:37:25;;;;;;;0.47;0.47;;;;;;;12.28;85.17;99562.75;5090210;28;20195;-69
2022/09/23 02:39:58;;;;;;;0.50;0.50;;;;;;;12.28;85.30;99573.03;5090035;28;20685;-70
2022/09/23 02:42:33;;;;;;;0.60;0.60;;;;;;;12.20;85.03;99564.78;5089836;28;20253;-69
2022/09/23 02:45:00;;;;;;;0.50;0.50;;;;;;;12.27;85.13;99576.53;5090016;28;20199;-69
2022/09/23 02:47:32;;;;;;;0.40;0.40;;;;;;;12.25;85.33;99570.59;5089766;28;20690;-69
2022/09/23 02:50:01;;;;;;;0.40;0.40;;;;;;;12.17;84.96;99554.59;5089685;28;20195;-69
2022/09/23 02:52:28;;;;;;;0.50;0.50;;;;;;;12.31;84.72;99578.09;5089078;28;20211;-69
2022/09/23 02:54:55;;;;;;;0.40;0.40;;;;;;;12.25;84.64;99569.75;5087361;28;20211;-68
2022/09/23 02:57:22;;;;;;;0.40;0.40;;;;;;;12.31;84.59;99577.28;5089597;28;20211;-70
2022/09/23 02:59:49;;;;;;;0.50;0.50;;;;;;;12.32;84.48;99584.91;5089062;28;20207;-69
2022/09/23 03:02:31;;;;;;;0.50;0.50;;;;;;;12.35;84.66;99579.66;5089838;28;20195;-69
2022/09/23 03:05:11;;;;;;;0.50;0.50;;;;;;;12.39;84.25;99586.38;5089456;28;20217;-69
2022/09/23 03:07:49;;;;;;;0.50;0.50;;;;;;;12.38;83.89;99582.13;5090100;28;20196;-69
2022/09/23 03:10:22;;;;;;;0.50;0.50;;;;;;;12.34;84.55;99585.69;5092086;28;20656;-69
2022/09/23 03:13:00;;;;;;;0.50;0.50;;;;;;;12.29;84.52;99585.03;5093861;28;20217;-69
2022/09/23 03:15:35;;;;;;;0.47;0.47;;;;;;;12.26;84.46;99586.84;5093342;28;20322;-69
2022/09/23 03:18:11;;;;;;;0.40;0.40;;;;;;;12.25;84.21;99590.31;5093599;28;20729;-69
2022/09/23 03:20:44;;;;;;;0.40;0.40;;;;;;;12.20;84.72;99587.91;5093877;28;20738;-69
2022/09/23 03:23:14;;;;;;;0.40;0.40;;;;;;;12.16;84.32;99588.91;5093150;28;20195;-69
2022/09/23 03:25:46;;;;;;;0.60;0.60;;;;;;;12.08;84.32;99591.72;5093109;28;20241;-70
2022/09/23 03:28:16;;;;;;;0.50;0.50;;;;;;;12.03;84.60;99593.59;5092781;28;20222;-68
2022/09/23 03:30:43;;;;;;;0.40;0.40;;;;;;;12.02;85.09;99597.06;5093513;28;20196;-69
2022/09/23 03:33:14;;;;;;;0.50;0.50;;;;;;;12.03;85.09;99593.59;5092709;28;20292;-67
2022/09/23 03:38:37;;;;;;;0.47;0.47;;;;;;;12.04;85.13;99599.59;5093335;28;20198;-69
2022/09/23 03:41:08;;;;;;;0.50;0.50;;;;;;;12.03;85.50;99593.59;5092569;28;20286;-69
2022/09/23 03:43:35;;;;;;;0.50;0.50;;;;;;;12.07;85.64;99600.31;5092331;28;20204;-69
2022/09/23 03:46:02;;;;;;;0.50;0.50;;;;;;;11.95;86.79;99602.47;5092890;28;20682;-69
2022/09/23 03:48:29;;;;;;;0.60;0.60;;;;;;;11.87;87.71;99599.28;5092598;28;20675;-69
2022/09/23 03:50:57;;;;;;;0.50;0.50;;;;;;;11.75;88.36;99603.09;5092724;28;20203;-69
2022/09/23 03:53:24;;;;;;;0.50;0.50;;;;;;;11.57;90.31;99604.47;5091273;28;20223;-70
2022/09/23 03:55:50;;;;;;;0.40;0.40;;;;;;;11.44;91.49;99607.44;5092959;28;20203;-69
2022/09/23 03:58:17;;;;;;;0.40;0.40;;;;;;;11.39;91.74;99615.31;5089683;28;20199;-69
2022/09/23 04:00:45;;;;;;;0.57;0.57;;;;;;;11.15;93.18;99590.34;5092860;28;20264;-69
2022/09/23 04:03:12;;;;;;;0.50;0.50;;;;;;;11.18;93.71;99615.91;5092226;28;20200;-69
2022/09/23 04:05:39;;;;;;;0.40;0.40;;;;;;;11.07;94.77;99616.25;5092290;28;20199;-69
2022/09/23 04:08:07;;;;;;;0.50;0.50;;;;;;;10.96;95.34;99615.69;5092247;28;20199;-69
2022/09/23 04:10:34;;;;;;;0.47;0.47;;;;;;;10.94;96.03;99611.50;5092080;28;20195;-69
2022/09/23 04:13:00;;;;;;;0.60;0.60;;;;;;;10.88;96.68;99616.81;5091946;28;20265;-69
2022/09/23 04:15:27;;;;;;;0.50;0.50;;;;;;;10.79;96.77;99611.94;5091343;28;20219;-69
2022/09/23 04:17:54;;;;;;;0.40;0.40;;;;;;;10.76;97.14;99617.16;5091931;28;20253;-69
2022/09/23 04:20:21;;;;;;;0.50;0.50;;;;;;;10.79;97.54;99617.06;5091790;28;21716;-69
2022/09/23 04:22:47;;;;;;;0.50;0.50;;;;;;;10.78;97.09;99620.50;5092161;28;20617;-69
2022/09/23 04:25:16;;;;;;;0.50;0.50;;;;;;;10.80;97.34;99617.00;5091800;28;20207;-69
2022/09/23 04:27:43;;;;;;;0.40;0.40;;;;;;;10.88;97.23;99627.91;5091794;28;20196;-69
2022/09/23 04:30:12;;;;;;;0.50;0.50;;;;;;;10.92;96.48;99620.97;5092906;28;20717;-70
2022/09/23 04:32:39;;;;;;;0.50;0.50;;;;;;;11.05;96.09;99624.84;5091989;28;20276;-69
2022/09/23 04:35:08;;;;;;;0.60;0.60;;;;;;;11.21;94.75;99626.09;5092115;28;20533;-69
2022/09/23 04:37:34;;;;;;;0.40;0.40;;;;;;;11.31;94.27;99626.69;5091992;28;20196;-70
2022/09/23 04:40:02;;;;;;;0.57;0.57;;;;;;;11.33;93.45;99615.50;5091793;28;20206;-69
2022/09/23 04:42:30;;;;;;;0.57;0.57;;;;;;;11.46;93.56;99632.22;5091634;28;20686;-69
2022/09/23 04:44:57;;;;;;;0.50;0.50;;;;;;;11.47;93.40;99633.88;5091608;28;20286;-69
2022/09/23 04:47:24;;;;;;;0.50;0.50;;;;;;;11.46;93.69;99627.06;5091562;28;20264;-69
2022/09/23 04:49:51;;;;;;;0.50;0.50;;;;;;;11.40;95.05;99634.13;5091600;28;20572;-68
2022/09/23 04:52:18;;;;;;;0.60;0.60;;;;;;;11.37;95.30;99637.59;5087774;28;20218;-69
2022/09/23 04:54:45;;;;;;;0.50;0.50;;;;;;;11.33;95.37;99636.03;5086419;28;20206;-69
2022/09/23 04:57:12;;;;;;;0.40;0.40;;;;;;;11.36;95.40;99643.63;5083354;28;20207;-69
2022/09/23 04:59:40;;;;;;;0.40;0.40;;;;;;;11.41;95.91;99649.47;5088279;28;20213;-69
2022/09/23 05:02:07;;;;;;;0.50;0.50;;;;;;;11.46;95.81;99645.03;5090413;28;20726;-69
2022/09/23 05:04:35;;;;;;;0.50;0.50;;;;;;;11.55;95.69;99643.91;5088230;28;20199;-69
2022/09/23 05:07:01;;;;;;;0.40;0.40;;;;;;;11.55;94.84;99638.78;5090330;28;20223;-69
2022/09/23 05:09:28;;;;;;;0.60;0.60;;;;;;;11.67;94.35;99652.97;5091334;28;20195;-69
2022/09/23 05:11:55;;;;;;;0.40;0.40;;;;;;;11.74;94.08;99646.78;5091025;28;20203;-70
2022/09/23 05:14:22;;;;;;;0.40;0.40;;;;;;;11.94;93.24;99652.16;5090029;28;20227;-70
2022/09/23 05:16:50;;;;;;;0.40;0.40;;;;;;;12.13;92.22;99644.69;5090854;28;20726;-69
2022/09/23 05:19:16;;;;;;;0.60;0.60;;;;;;;12.30;91.04;99650.97;5090074;28;20200;-69
2022/09/23 05:21:43;;;;;;;0.40;0.40;;;;;;;12.47;90.48;99643.50;5088269;28;20595;-70
2022/09/23 05:24:12;;;;;;;0.40;0.40;;;;;;;12.64;89.73;99643.78;5084378;28;20203;-70
2022/09/23 05:26:39;;;;;;;0.50;0.50;;;;;;;12.78;89.11;99651.03;5086082;28;20265;-70
2022/09/23 05:29:06;;;;;;;0.50;0.50;;;;;;;12.99;87.73;99649.41;5086695;28;20199;-70
2022/09/23 05:31:33;;;;;;;0.50;0.50;;;;;;;13.17;86.17;99647.94;5088855;28;20253;-70
2022/09/23 05:34:03;;;;;;;0.60;0.60;;;;;;;13.22;86.17;99628.84;5086129;28;20219;-72
2022/09/23 05:36:32;;;;;;;0.50;0.50;;;;;;;13.53;85.25;99656.88;5091181;28;20560;-72
2022/09/23 05:38:59;;;;;;;0.40;0.40;;;;;;;13.67;83.66;99650.28;5087983;28;20253;-70
2022/09/23 05:41:26;;;;;;;0.50;0.50;;;;;;;13.86;82.94;99644.44;5089323;28;20599;-69
2022/09/23 05:43:54;;;;;;;0.50;0.50;;;;;;;13.88;81.51;99650.34;5087981;28;20199;-70
2022/09/23 05:46:23;;;;;;;0.50;0.50;;;;;;;13.85;81.84;99622.13;5089404;28;20199;-72
2022/09/23 05:48:51;;;;;;;0.47;0.47;;;;;;;14.03;81.86;99624.81;5089316;28;20203;-71
2022/09/23 05:51:20;;;;;;;0.60;0.60;;;;;;;14.32;80.47;99649.41;5087810;28;20197;-72
2022/09/23 05:53:48;;;;;;;0.60;0.60;;;;;;;14.48;80.03;99642.72;5088255;28;20216;-72
2022/09/23 05:56:18;;;;;;;0.40;0.40;;;;;;;14.52;79.48;99643.44;5088089;28;20636;-71
2022/09/23 05:58:45;;;;;;;0.47;0.47;;;;;;;14.56;80.33;99640.66;5089604;28;20656;-71
2022/09/23 06:01:13;;;;;;;0.40;0.40;;;;;;;14.64;79.06;99641.16;5088845;28;20249;-71
2022/09/23 06:03:40;;;;;;;0.40;0.40;;;;;;;14.79;79.56;99644.00;5089410;28;20197;-71
2022/09/23 06:06:13;;;;;;;0.50;0.50;;;;;;;14.92;78.71;99632.25;5089294;28;20264;-70
2022/09/23 06:08:41;;;;;;;0.40;0.40;;;;;;;15.09;77.16;99650.38;5089750;28;20203;-69
2022/09/23 06:11:09;;;;;;;0.40;0.40;;;;;;;15.21;76.40;99642.97;5089450;28;20197;-68
2022/09/23 06:13:37;;;;;;;0.50;0.50;;;;;;;15.43;75.23;99645.41;5088640;28;20261;-68
2022/09/23 06:16:04;;;;;;;0.40;0.40;;;;;;;15.54;74.87;99645.75;5085939;28;20267;-71
2022/09/23 06:18:31;;;;;;;1.33;1.33;;;;;;;15.76;74.21;99650.78;5088939;28;20282;-71
2022/09/23 06:21:01;;;;;;;0.57;0.57;;;;;;;15.81;73.05;99658.28;5089182;28;20203;-71
2022/09/23 06:23:28;;;;;;;0.30;0.30;;;;;;;15.81;73.46;99640.19;5089093;28;20290;-71
2022/09/23 06:26:00;;;;;;;0.37;0.37;;;;;;;15.75;73.46;99649.94;5089048;28;20248;-71
2022/09/23 06:28:31;;;;;;;0.40;0.40;;;;;;;15.91;72.64;99654.38;5089015;28;20214;-71
2022/09/23 06:30:58;;;;;;;0.40;0.40;;;;;;;15.95;71.34;99653.31;5089216;28;20614;-70
2022/09/23 06:33:26;;;;;;;0.40;0.40;;;;;;;15.98;72.85;99660.91;5088896;28;20212;-70
2022/09/23 06:35:56;;;;;;;0.50;0.50;;;;;;;16.00;70.92;99651.34;5089314;28;20286;-70
2022/09/23 06:38:23;;;;;;;0.43;0.43;;;;;;;16.21;71.32;99647.72;5089251;28;20294;-71
2022/09/23 06:40:51;;;;;;;0.40;0.40;;;;;;;16.41;69.49;99650.16;5085362;28;20207;-71
2022/09/23 06:43:20;;;;;;;0.40;0.40;;;;;;;16.47;68.96;99655.03;5088256;28;20195;-70
2022/09/23 06:45:47;;;;;;;0.50;0.50;;;;;;;16.53;67.97;99656.47;5089130;28;20205;-70
2022/09/23 06:48:13;;;;;;;0.40;0.40;;;;;;;16.55;67.20;99663.25;5092141;28;20270;-71
2022/09/23 06:50:40;;;;;;;0.40;0.40;;;;;;;16.68;66.81;99656.56;5091070;28;20651;-70
2022/09/23 06:53:07;;;;;;;0.50;0.50;;;;;;;16.65;66.69;99658.47;5090265;28;20231;-71
2022/09/23 06:55:34;;;;;;;0.57;0.57;;;;;;;16.74;67.49;99663.16;5092176;28;20625;-71
2022/09/23 06:58:00;;;;;;;0.40;0.40;;;;;;;16.69;67.78;99668.59;5092002;28;20578;-71
2022/09/23 07:00:29;;;;;;;0.40;0.40;;;;;;;16.84;65.96;99669.56;5091036;28;20675;-71
2022/09/23 07:02:55;;;;;;;0.47;0.47;;;;;;;17.01;64.89;99666.09;5092542;28;20199;-72
2022/09/23 07:05:22;;;;;;;0.40;0.40;;;;;;;17.14;65.36;99667.13;5090782;28;20652;-70
2022/09/23 07:07:49;;;;;;;0.30;0.30;;;;;;;17.12;64.29;99664.63;5091138;28;20294;-70
2022/09/23 07:10:16;;;;;;;0.40;0.40;;;;;;;17.13;65.98;99671.47;5090828;28;20199;-71
2022/09/23 07:12:43;;;;;;;0.47;0.47;;;;;;;17.24;65.96;99670.91;5092382;28;20223;-71
2022/09/23 07:15:11;;;;;;;0.50;0.50;;;;;;;17.38;64.22;99676.22;5092259;28;20730;-71
2022/09/23 07:17:41;;;;;;;0.40;0.40;;;;;;;17.21;63.74;99668.47;5092416;28;20207;-70
2022/09/23 07:20:10;;;;;;;0.33;0.33;;;;;;;17.29;65.56;99659.38;5091852;28;20695;-71
2022/09/23 07:22:38;;;;;;;0.40;0.40;;;;;;;17.45;63.76;99672.34;5094396;28;20289;-69
2022/09/23 07:25:06;;;;;;;0.50;0.50;;;;;;;17.56;63.03;99674.41;5085014;28;20203;-70
2022/09/23 07:27:33;;;;;;;0.40;0.40;;;;;;;17.42;63.20;99672.50;5089882;28;20290;-70
2022/09/23 07:29:59;;;;;;;0.40;0.40;;;;;;;17.49;64.35;99653.13;5091623;28;20722;-71
2022/09/23 07:32:27;;;;;;;0.30;0.30;;;;;;;17.68;62.45;99673.72;5092351;28;20206;-70
2022/09/23 07:34:56;;;;;;;0.60;0.60;;;;;;;17.77;62.08;99678.44;5092741;28;20195;-70
2022/09/23 07:37:22;;;;;;;0.50;0.50;;;;;;;17.93;62.23;99668.03;5092068;28;20210;-71
2022/09/23 07:39:49;;;;;;;0.50;0.50;;;;;;;17.94;62.06;99672.28;5091948;28;20567;-71
2022/09/23 07:42:16;;;;;;;0.50;0.50;;;;;;;18.10;62.19;99675.69;5091785;28;20552;-72
2022/09/23 07:44:46;;;;;;;0.40;0.40;;;;;;;18.16;61.87;99659.75;5091299;28;20196;-72
2022/09/23 07:47:14;;;;;;;0.40;0.40;;;;;;;18.40;61.23;99678.31;5091697;28;20671;-71
2022/09/23 07:49:41;;;;;;;0.37;0.37;;;;;;;18.51;59.67;99678.56;5090131;28;20622;-70
2022/09/23 07:52:09;;;;;;;0.40;0.40;;;;;;;18.60;58.87;99668.47;5088127;28;20276;-71
2022/09/23 07:54:36;;;;;;;0.60;0.60;;;;;;;18.54;59.24;99666.25;5090503;28;20223;-71
2022/09/23 07:57:03;;;;;;;0.50;0.50;;;;;;;18.66;58.80;99665.50;5091900;28;20202;-71
2022/09/23 07:59:30;;;;;;;0.50;0.50;;;;;;;18.70;58.11;99677.41;5092806;28;20583;-70
2022/09/23 08:01:57;;;;;;;0.37;0.37;;;;;;;18.74;56.70;99650.28;5091222;28;20204;-71
2022/09/23 08:04:27;;;;;;;0.33;0.33;;;;;;;19.05;57.30;99664.06;5090964;28;20700;-71
2022/09/23 08:06:56;;;;;;;0.40;0.40;;;;;;;19.12;55.27;99678.34;5090830;28;20214;-70
2022/09/23 08:09:26;;;;;;;0.43;0.43;;;;;;;19.19;54.76;99675.25;5091535;28;20211;-70
2022/09/23 08:11:54;;;;;;;0.40;0.40;;;;;;;19.24;55.30;99662.00;5092454;28;20674;-68
2022/09/23 08:14:22;;;;;;;0.50;0.50;;;;;;;19.38;55.11;99659.41;5091946;28;20712;-70
2022/09/23 08:16:49;;;;;;;0.40;0.40;;;;;;;19.37;56.10;99663.75;5091926;28;20256;-71
2022/09/23 08:19:16;;;;;;;0.40;0.40;;;;;;;19.50;56.01;99653.47;5091427;28;20212;-70
2022/09/23 08:21:45;;;;;;;0.40;0.40;;;;;;;19.76;54.43;99665.66;5091031;28;20212;-71
2022/09/23 08:24:14;;;;;;;0.40;0.40;;;;;;;19.93;54.37;99652.38;5091330;28;20197;-71
2022/09/23 08:26:43;;;;;;;0.40;0.40;;;;;;;20.07;55.26;99648.91;5091483;28;20679;-71
2022/09/23 08:29:12;;;;;;;0.40;0.40;;;;;;;20.19;55.82;99653.31;5091193;28;20204;-71
2022/09/23 08:31:39;;;;;;;0.30;0.30;;;;;;;20.06;52.71;99652.44;5091183;28;20205;-71
2022/09/23 08:34:06;;;;;;;0.40;0.40;;;;;;;20.11;54.05;99645.16;5091263;28;20285;-70
2022/09/23 08:36:33;;;;;;;0.30;0.30;;;;;;;20.11;53.82;99634.75;5091075;28;20233;-70
2022/09/23 08:39:00;;;;;;;0.50;0.50;;;;;;;20.19;55.06;99631.66;5091164;28;20692;-71
2022/09/23 08:41:38;;;;;;;0.40;0.40;;;;;;;20.24;53.44;99634.78;5090267;28;20199;-71
2022/09/23 08:44:12;;;;;;;0.30;0.30;;;;;;;20.23;54.37;99622.69;5090273;28;20849;-72
2022/09/23 08:46:45;;;;;;;0.50;0.50;;;;;;;20.25;53.02;99626.03;5092206;28;20213;-70
2022/09/23 08:49:17;;;;;;;0.40;0.40;;;;;;;20.37;50.58;99625.25;5091069;28;20260;-71
2022/09/23 08:51:47;;;;;;;0.30;0.30;;;;;;;20.49;50.42;99619.22;5091245;28;20288;-71
2022/09/23 08:54:16;;;;;;;0.30;0.30;;;;;;;20.69;49.07;99621.31;5090825;28;20212;-71
2022/09/23 08:56:48;;;;;;;0.30;0.30;;;;;;;20.80;46.81;99623.19;5090552;28;20218;-71
2022/09/23 08:59:27;;;;;;;0.30;0.30;;;;;;;20.95;47.30;99617.75;5090569;28;20292;-72
2022/09/23 09:02:00;;;;;;;0.40;0.40;;;;;;;21.05;47.46;99614.50;5088863;28;20199;-73
2022/09/23 09:04:33;;;;;;;0.30;0.30;;;;;;;21.02;46.89;99619.94;5090285;28;20682;-73
2022/09/23 09:07:11;;;;;;;0.23;0.23;;;;;;;21.13;48.99;99609.66;5089309;28;20210;-71
2022/09/23 09:09:44;;;;;;;0.40;0.40;;;;;;;21.30;46.31;99611.88;5090514;28;20206;-72
2022/09/23 09:12:16;;;;;;;0.30;0.30;;;;;;;21.35;44.60;99609.78;5090435;28;20237;-73
2022/09/23 09:14:57;;;;;;;0.30;0.30;;;;;;;21.11;45.52;99607.13;5090617;28;20229;-72
2022/09/23 09:17:33;;;;;;;0.33;0.33;;;;;;;21.13;44.26;99614.84;5090952;28;20604;-72
2022/09/23 09:20:07;;;;;;;0.40;0.40;;;;;;;21.00;43.80;99608.78;5090477;28;20263;-71
2022/09/23 09:22:49;;;;;;;0.30;0.30;;;;;;;21.01;45.11;99610.44;5087028;28;20265;-72
2022/09/23 09:25:33;;;;;;;0.33;0.33;;;;;;;20.94;44.20;99613.47;5089153;28;20202;-71
2022/09/23 09:28:01;;;;;;;0.30;0.30;;;;;;;20.95;44.19;99617.75;5089456;28;20213;-70
2022/09/23 09:30:29;;;;;;;0.47;0.47;;;;;;;21.10;44.47;99607.25;5087889;28;20206;-71
2022/09/23 09:33:01;;;;;;;0.30;0.30;;;;;;;21.11;44.86;99601.91;5088832;28;20203;-71
2022/09/23 09:35:36;;;;;;;0.30;0.30;;;;;;;21.15;41.85;99610.34;5088703;28;20225;-71
2022/09/23 09:38:04;;;;;;;0.30;0.30;;;;;;;20.99;46.01;99578.44;5087791;28;20604;-71
2022/09/23 09:40:31;;;;;;;0.30;0.30;;;;;;;21.35;44.53;99608.03;5085307;28;20202;-71
2022/09/23 09:42:58;;;;;;;0.40;0.40;;;;;;;21.45;42.09;99611.63;5087910;28;20744;-72
2022/09/23 09:45:41;;;;;;;0.40;0.40;;;;;;;21.55;41.40;99600.53;5088969;28;20256;-71
2022/09/23 09:48:13;;;;;;;0.30;0.30;;;;;;;21.72;40.71;99613.19;5087766;28;20199;-72
2022/09/23 09:50:48;;;;;;;0.30;0.30;;;;;;;21.74;41.25;99612.16;5089755;28;20667;-72
2022/09/23 09:53:21;;;;;;;0.33;0.33;;;;;;;21.62;41.44;99605.19;5087527;28;20203;-71
2022/09/23 09:55:59;;;;;;;0.33;0.33;;;;;;;21.52;40.88;99606.78;5089330;28;20230;-71
2022/09/23 09:58:28;;;;;;;0.30;0.30;;;;;;;21.52;40.58;99606.78;5086881;28;20757;-71
2022/09/23 10:00:57;;;;;;;0.40;0.40;;;;;;;21.37;38.52;99608.72;5089437;28;20217;-72
2022/09/23 10:03:34;;;;;;;0.33;0.33;;;;;;;21.43;40.74;99604.84;5087430;28;20238;-72
2022/09/23 10:06:14;;;;;;;0.20;0.20;;;;;;;21.58;40.74;99601.16;5089176;28;20210;-66
2022/09/23 10:08:41;;;;;;;0.30;0.30;;;;;;;21.71;42.51;99601.09;5086383;28;20216;-71
2022/09/23 10:11:15;;;;;;;0.30;0.30;;;;;;;21.78;42.69;99597.06;5083909;28;20204;-72
2022/09/23 10:13:43;;;;;;;0.30;0.30;;;;;;;21.85;41.50;99580.88;5085939;28;20321;-72
2022/09/23 10:16:15;;;;;;;0.20;0.20;;;;;;;21.99;40.39;99595.56;5086143;28;20211;-71
2022/09/23 10:18:54;;;;;;;0.30;0.30;;;;;;;21.93;39.36;99590.78;5082106;28;20203;-71
2022/09/23 10:21:23;;;;;;;0.30;0.30;;;;;;;21.88;39.06;99591.09;5082246;28;20273;-71
2022/09/23 10:23:52;;;;;;;0.30;0.30;;;;;;;21.89;39.15;99590.19;5086690;28;20662;-71
2022/09/23 10:26:29;;;;;;;0.30;0.30;;;;;;;21.89;39.31;99584.13;5085024;28;20206;-69
2022/09/23 10:28:58;;;;;;;0.40;0.40;;;;;;;21.64;40.52;99563.34;5083021;28;20681;-70
2022/09/23 10:31:30;;;;;;;0.30;0.30;;;;;;;21.86;40.50;99574.72;5080565;28;20207;-70
2022/09/23 10:34:00;;;;;;;0.23;0.23;;;;;;;21.96;40.27;99578.34;5086785;28;20227;-70
2022/09/23 10:36:29;;;;;;;0.27;0.27;;;;;;;21.77;38.35;99553.69;5088282;28;20199;-70
2022/09/23 10:46:37;;;;;;;0.40;0.40;;;;;;;21.90;38.87;99570.97;5088338;28;20199;-70
2022/09/23 10:47:46;;;;;;;0.20;0.20;;;;;;;22.34;38.56;99564.19;5088352;28;20198;-70
2022/09/23 10:50:31;;;;;;;0.30;0.30;;;;;;;22.38;40.02;99555.19;5089313;28;20670;-70
2022/09/23 10:53:07;;;;;;;0.30;0.30;;;;;;;22.40;38.02;99548.88;5087708;28;20655;-70
2022/09/23 10:55:50;;;;;;;0.40;0.40;;;;;;;22.29;37.82;99542.81;5087349;28;20262;-71
2022/09/23 10:58:38;;;;;;;0.30;0.30;;;;;;;22.38;38.62;99547.34;5085736;28;20207;-70
2022/09/23 11:01:19;;;;;;;0.40;0.40;;;;;;;22.37;35.51;99548.28;5087007;28;20655;-71
2022/09/23 11:04:16;;;;;;;0.20;0.20;;;;;;;22.62;37.91;99540.22;5087704;28;20291;-70
2022/09/23 11:06:55;;;;;;;0.23;0.23;;;;;;;22.59;37.75;99530.00;5081751;28;20254;-71
2022/09/23 11:09:33;;;;;;;0.33;0.33;;;;;;;22.43;36.07;99521.69;5089050;28;20209;-70
2022/09/23 11:12:15;;;;;;;0.30;0.30;;;;;;;22.65;41.95;99508.59;5089210;28;20212;-71
2022/09/23 11:15:00;;;;;;;0.30;0.30;;;;;;;22.66;37.12;99512.94;5088553;28;20231;-71
2022/09/23 11:17:46;;;;;;;0.20;0.20;;;;;;;22.70;38.03;99523.97;5088824;28;20288;-70
2022/09/23 11:20:41;;;;;;;0.37;0.37;;;;;;;22.70;35.08;99522.19;5087634;28;20203;-70
2022/09/23 11:23:39;;;;;;;0.30;0.30;;;;;;;22.62;36.03;99515.88;5089466;28;21107;-70
2022/09/23 11:26:19;;;;;;;0.30;0.30;;;;;;;22.64;35.98;99512.19;5068679;28;20583;-71
2022/09/23 11:29:01;;;;;;;0.30;0.30;;;;;;;22.72;34.04;99504.59;5090474;28;20204;-70
2022/09/23 11:31:37;;;;;;;0.30;0.30;;;;;;;22.76;32.03;99503.41;5092028;28;20579;-70
2022/09/23 11:34:24;;;;;;;0.30;0.30;;;;;;;22.70;32.87;99498.69;5093388;28;20214;-71
2022/09/23 11:36:56;;;;;;;0.27;0.27;;;;;;;22.82;33.32;99496.88;5090216;28;20568;-71
2022/09/23 11:39:29;;;;;;;0.30;0.30;;;;;;;22.86;33.53;99504.38;5093694;28;20332;-70
2022/09/23 11:41:59;;;;;;;0.23;0.23;;;;;;;22.93;32.69;99494.25;5092969;28;20207;-71
2022/09/23 11:44:32;;;;;;;0.20;0.20;;;;;;;22.92;33.28;99488.19;5092951;28;20199;-70
2022/09/23 11:47:06;;;;;;;0.30;0.30;;;;;;;22.93;32.20;99484.63;5093004;28;20226;-71
2022/09/23 11:49:38;;;;;;;0.30;0.30;;;;;;;22.99;35.07;99473.69;5092751;28;20211;-71
2022/09/23 11:52:18;;;;;;;0.20;0.20;;;;;;;22.96;32.98;99467.84;5093080;28;20290;-70
2022/09/23 11:54:51;;;;;;;0.20;0.20;;;;;;;22.99;32.43;99465.84;5092620;28;20252;-71
2022/09/23 11:57:25;;;;;;;0.40;0.40;;;;;;;22.92;33.73;99472.50;5093365;28;20225;-71
2022/09/23 11:59:57;;;;;;;0.30;0.30;;;;;;;22.87;33.40;99477.28;5092963;28;20294;-70
2022/09/23 12:02:28;;;;;;;0.37;0.37;;;;;;;22.89;33.23;99475.38;5092184;28;20207;-71